< < Back
Terminal Aerodrome Forecast


Current Version              Previous Versions:   1  2  3  4  5  6  7  8  9  

Terminal Aerodrome Forecast

854
FTUS42 KGSP 241137
TAFCLT
TAF
KCLT 241137Z 2412/2512 13004KT P6SM SCT035
      TEMPO 2412/2415 BKN025
     FM241500 15004KT P6SM BKN045
     FM241800 17004KT P6SM SCT070=

Latest METAR

179
SAUS70 KWBC 241100 RRL
MTRCLT
METAR KCLT 241052Z 14006KT 10SM SCT026 SCT250 22/18 A3030 RMK AO2 SLP250
T02220183


USA.gov is the U.S. government's official web portal to all federal, state and local government web resources and services.